Time;durP1;ratioP1;P1;durP2;ratioP2;P2;SDS_P1;SDS_P2;PMS_P1;PMS_P2;Temp;Humidity;BMP_temperature;BMP_pressure;BME280_temperature;BME280_humidity;BME280_pressure;Samples;Min_cycle;Max_cycle;Signal;HPM_P1;HPM_P2
2021/07/20 00:00:39;;;;;;;7.97;2.47;;;24.00;99.90;;;;;;5041334;28;20771;-75
2021/07/20 00:03:09;;;;;;;7.53;2.70;;;24.00;99.90;;;;;;5044796;28;20198;-75
2021/07/20 00:05:42;;;;;;;12.63;3.10;;;24.00;99.90;;;;;;5018615;28;20181;-75
2021/07/20 00:08:10;;;;;;;9.90;2.97;;;24.00;99.90;;;;;;5042974;28;20192;-73
2021/07/20 00:10:51;;;;;;;10.80;3.03;;;23.90;99.90;;;;;;5042719;28;20283;-75
2021/07/20 00:13:17;;;;;;;14.20;2.53;;;24.00;99.90;;;;;;5043610;28;20221;-73
2021/07/20 00:15:44;;;;;;;8.47;2.40;;;24.00;99.90;;;;;;5045152;28;20226;-73
2021/07/20 00:18:22;;;;;;;11.30;2.97;;;24.00;99.90;;;;;;5042374;28;20225;-75
2021/07/20 00:20:49;;;;;;;9.43;2.67;;;24.00;99.90;;;;;;5043364;28;20774;-72
2021/07/20 00:23:16;;;;;;;11.77;2.77;;;24.00;99.90;;;;;;5026771;28;20274;-73
2021/07/20 00:25:43;;;;;;;13.50;3.07;;;24.00;99.90;;;;;;5058418;28;20226;-73
2021/07/20 00:28:09;;;;;;;10.10;2.87;;;23.90;99.90;;;;;;5041735;28;20175;-73
2021/07/20 00:30:35;;;;;;;13.87;3.00;;;24.00;99.90;;;;;;5031408;28;20203;-73
2021/07/20 00:33:02;;;;;;;17.70;3.10;;;23.90;99.90;;;;;;5025062;28;20278;-74
2021/07/20 00:35:28;;;;;;;14.37;3.37;;;23.90;99.90;;;;;;5026481;28;20192;-72
2021/07/20 00:37:55;;;;;;;16.57;3.30;;;23.90;99.90;;;;;;5018778;28;20283;-76
2021/07/20 00:40:21;;;;;;;9.13;3.00;;;23.90;99.90;;;;;;5046660;28;20175;-73
2021/07/20 00:42:48;;;;;;;11.40;2.73;;;23.90;99.90;;;;;;5046782;28;20195;-76
2021/07/20 00:45:17;;;;;;;10.53;2.97;;;23.90;99.90;;;;;;5043111;28;20183;-75
2021/07/20 00:47:48;;;;;;;11.67;2.83;;;23.80;99.90;;;;;;5060227;28;20223;-75
2021/07/20 00:50:28;;;;;;;11.07;2.90;;;23.80;99.90;;;;;;5023566;28;20187;-72
2021/07/20 00:52:54;;;;;;;8.50;2.63;;;23.70;99.90;;;;;;5042257;28;20216;-73
2021/07/20 00:55:22;;;;;;;13.27;2.97;;;23.70;99.90;;;;;;5061322;28;20190;-75
2021/07/20 00:57:48;;;;;;;11.43;4.03;;;23.70;99.90;;;;;;5042789;28;20192;-73
2021/07/20 01:00:19;;;;;;;9.37;2.63;;;23.70;99.90;;;;;;5040995;28;20210;-75
2021/07/20 01:02:46;;;;;;;7.83;2.87;;;23.60;99.90;;;;;;5061037;28;20187;-75
2021/07/20 01:05:20;;;;;;;11.37;3.10;;;23.60;99.90;;;;;;5039656;28;20283;-75
2021/07/20 01:07:48;;;;;;;12.27;3.00;;;23.50;99.90;;;;;;5030809;28;20234;-74
2021/07/20 01:10:16;;;;;;;8.87;3.00;;;23.50;99.90;;;;;;5025153;28;20210;-72
2021/07/20 01:12:46;;;;;;;9.63;3.00;;;23.50;99.90;;;;;;5044436;28;20265;-74
2021/07/20 01:15:15;;;;;;;11.77;3.40;;;23.50;99.90;;;;;;5054609;28;20195;-75
2021/07/20 01:17:44;;;;;;;11.17;3.40;;;23.50;99.90;;;;;;5042972;28;20199;-75
2021/07/20 01:20:22;;;;;;;12.57;3.20;;;23.50;99.90;;;;;;5041540;28;20555;-75
2021/07/20 01:23:18;;;;;;;11.47;3.10;;;23.50;99.90;;;;;;5023360;28;20183;-75
2021/07/20 01:25:45;;;;;;;10.47;3.10;;;23.50;99.90;;;;;;5045523;28;20199;-75
2021/07/20 01:28:18;;;;;;;12.47;3.07;;;23.50;99.90;;;;;;5038767;28;20342;-75
2021/07/20 01:30:55;;;;;;;13.97;3.20;;;23.40;99.90;;;;;;5041986;28;20203;-74
2021/07/20 01:33:23;;;;;;;9.60;2.97;;;23.40;99.90;;;;;;5037875;28;20184;-75
2021/07/20 01:35:52;;;;;;;10.83;3.23;;;23.30;99.90;;;;;;5044798;28;20990;-74
2021/07/20 01:38:21;;;;;;;14.27;4.10;;;23.20;99.90;;;;;;5034046;28;20188;-73
2021/07/20 01:40:50;;;;;;;14.43;3.40;;;23.10;99.90;;;;;;5036012;28;20706;-73
2021/07/20 01:43:24;;;;;;;10.23;3.33;;;23.10;99.90;;;;;;5054915;28;20188;-73
2021/07/20 01:45:56;;;;;;;12.70;3.63;;;23.10;99.90;;;;;;5029150;28;20945;-73
2021/07/20 01:48:27;;;;;;;9.10;3.10;;;23.10;99.90;;;;;;5034239;28;20197;-73
2021/07/20 01:50:56;;;;;;;16.83;3.97;;;23.10;99.90;;;;;;5045507;28;20245;-74
2021/07/20 01:53:22;;;;;;;10.00;2.90;;;23.10;99.90;;;;;;5040119;28;20190;-73
2021/07/20 01:55:49;;;;;;;10.30;3.40;;;23.10;99.90;;;;;;5056069;28;20294;-74
2021/07/20 01:58:15;;;;;;;10.90;3.00;;;23.10;99.90;;;;;;5026890;28;20190;-73
2021/07/20 02:00:42;;;;;;;12.30;3.03;;;23.10;99.90;;;;;;5038999;28;20310;-74
2021/07/20 02:03:56;;;;;;;14.17;3.17;;;23.10;99.90;;;;;;5022864;28;20184;-73
2021/07/20 02:09:27;;;;;;;10.27;2.93;;;23.10;99.90;;;;;;5014990;28;20253;-73
2021/07/20 02:11:54;;;;;;;9.30;3.27;;;23.00;99.90;;;;;;5040197;28;20390;-73
2021/07/20 02:14:39;;;;;;;12.27;3.03;;;23.00;99.90;;;;;;5042572;28;20230;-73
2021/07/20 02:17:06;;;;;;;10.33;3.20;;;23.10;99.90;;;;;;5058158;28;20215;-74
2021/07/20 02:19:46;;;;;;;14.17;3.27;;;23.00;99.90;;;;;;5038792;28;20207;-73
2021/07/20 02:22:20;;;;;;;14.87;3.20;;;22.90;99.90;;;;;;5042295;28;20188;-73
2021/07/20 02:24:50;;;;;;;15.20;4.00;;;22.90;99.90;;;;;;5024246;28;20188;-73
2021/07/20 02:27:20;;;;;;;9.93;2.83;;;22.80;99.90;;;;;;5042216;28;20575;-73
2021/07/20 02:29:48;;;;;;;9.27;3.17;;;22.80;99.90;;;;;;5043122;28;20274;-73
2021/07/20 02:32:17;;;;;;;9.97;3.30;;;22.70;99.90;;;;;;5039805;28;20206;-74
2021/07/20 02:34:45;;;;;;;8.53;3.03;;;22.60;99.90;;;;;;5026241;28;20230;-74
2021/07/20 02:37:13;;;;;;;14.63;3.13;;;22.60;99.90;;;;;;5027802;28;20263;-75
2021/07/20 02:39:42;;;;;;;10.37;3.47;;;22.60;99.90;;;;;;5039244;28;20183;-74
2021/07/20 02:42:11;;;;;;;9.07;3.17;;;22.50;99.90;;;;;;5020596;28;20195;-75
2021/07/20 02:44:39;;;;;;;11.67;3.87;;;22.50;99.90;;;;;;5041046;28;20183;-75
2021/07/20 02:47:08;;;;;;;12.23;3.40;;;22.50;99.90;;;;;;5041656;28;20226;-75
2021/07/20 02:49:38;;;;;;;11.33;3.23;;;22.50;99.90;;;;;;5038724;28;20233;-75
2021/07/20 02:52:07;;;;;;;7.73;3.17;;;22.50;99.90;;;;;;5044707;28;20215;-75
2021/07/20 02:54:34;;;;;;;8.40;3.20;;;22.40;99.90;;;;;;5040311;28;20189;-73
2021/07/20 02:57:01;;;;;;;10.43;3.10;;;22.40;99.90;;;;;;5040473;28;20235;-75
2021/07/20 02:59:30;;;;;;;10.93;3.40;;;22.40;99.90;;;;;;5042965;28;20199;-75
2021/07/20 03:01:59;;;;;;;11.60;3.47;;;22.40;99.90;;;;;;5043669;28;20600;-75
2021/07/20 03:04:26;;;;;;;14.43;3.80;;;22.50;99.90;;;;;;5038995;28;20220;-75
2021/07/20 03:07:02;;;;;;;15.13;3.73;;;22.50;99.90;;;;;;5025940;28;20218;-75
2021/07/20 03:09:32;;;;;;;9.27;3.43;;;22.50;99.90;;;;;;5043496;28;20187;-75
2021/07/20 03:12:07;;;;;;;13.17;4.03;;;22.50;99.90;;;;;;5031467;28;20211;-73
2021/07/20 03:14:35;;;;;;;17.90;4.10;;;22.50;99.90;;;;;;5046961;28;20168;-75
2021/07/20 03:17:03;;;;;;;12.20;3.53;;;22.50;99.90;;;;;;5030893;28;20172;-75
2021/07/20 03:19:33;;;;;;;12.77;3.30;;;22.50;99.90;;;;;;5061264;28;20229;-73
2021/07/20 03:22:06;;;;;;;12.47;3.77;;;22.50;99.90;;;;;;5029040;28;20175;-73
2021/07/20 03:24:38;;;;;;;10.67;3.50;;;22.50;99.90;;;;;;5030500;28;20662;-74
2021/07/20 03:27:06;;;;;;;11.83;3.27;;;22.50;99.90;;;;;;5045362;28;20203;-73
2021/07/20 03:29:40;;;;;;;14.20;3.70;;;22.40;99.90;;;;;;5027978;28;20196;-73
2021/07/20 03:32:16;;;;;;;11.20;3.67;;;22.40;99.90;;;;;;5041875;28;20214;-74
2021/07/20 03:34:45;;;;;;;9.97;3.70;;;22.50;99.90;;;;;;5043551;28;20208;-73
2021/07/20 03:37:14;;;;;;;9.97;3.50;;;22.50;99.90;;;;;;5028506;28;20192;-74
2021/07/20 03:39:42;;;;;;;14.83;3.57;;;22.50;99.90;;;;;;5045913;28;20805;-73
2021/07/20 03:42:10;;;;;;;7.77;3.00;;;22.50;99.90;;;;;;5034627;28;20200;-73
2021/07/20 03:44:37;;;;;;;11.57;3.37;;;22.50;99.90;;;;;;5042802;28;20195;-72
2021/07/20 03:47:06;;;;;;;16.37;3.67;;;22.50;99.90;;;;;;5043091;28;20207;-73
2021/07/20 03:49:34;;;;;;;9.43;3.07;;;22.50;99.90;;;;;;5028127;28;20192;-73
2021/07/20 03:52:02;;;;;;;10.57;3.23;;;22.60;99.90;;;;;;5044605;28;20828;-73
2021/07/20 03:54:32;;;;;;;10.27;3.67;;;22.60;99.90;;;;;;5045162;28;20176;-73
2021/07/20 03:57:01;;;;;;;12.97;3.77;;;22.60;99.90;;;;;;5041742;28;20184;-73
2021/07/20 03:59:32;;;;;;;8.63;3.27;;;22.60;99.90;;;;;;5044306;28;20250;-74
2021/07/20 04:02:02;;;;;;;10.77;3.47;;;22.60;99.90;;;;;;5042369;28;20201;-73
2021/07/20 04:04:43;;;;;;;12.97;3.90;;;22.60;99.90;;;;;;5046030;28;20215;-73
2021/07/20 04:07:18;;;;;;;15.30;3.47;;;22.60;99.90;;;;;;5041524;28;20273;-73
2021/07/20 04:09:45;;;;;;;9.00;2.93;;;22.60;99.90;;;;;;5044168;28;20195;-73
2021/07/20 04:12:13;;;;;;;10.43;3.30;;;22.60;99.90;;;;;;5038655;28;20220;-75
2021/07/20 04:14:42;;;;;;;10.30;3.47;;;22.60;99.90;;;;;;5039209;28;20184;-73
2021/07/20 04:17:13;;;;;;;16.23;3.73;;;22.60;99.90;;;;;;5046714;28;20180;-73
2021/07/20 04:19:42;;;;;;;11.70;4.13;;;22.60;99.90;;;;;;5059244;28;20208;-73
2021/07/20 04:22:10;;;;;;;14.67;3.97;;;22.70;99.90;;;;;;5043886;28;20192;-74
2021/07/20 04:24:38;;;;;;;13.07;2.97;;;22.70;99.90;;;;;;5045364;28;20198;-73
2021/07/20 04:27:05;;;;;;;9.97;3.87;;;22.70;99.90;;;;;;5029032;28;20183;-73
2021/07/20 04:29:31;;;;;;;11.60;3.53;;;22.70;99.90;;;;;;5048684;28;20699;-73
2021/07/20 04:32:05;;;;;;;9.40;3.20;;;22.80;99.90;;;;;;5061287;28;20195;-73
2021/07/20 04:34:35;;;;;;;11.90;3.67;;;22.80;99.90;;;;;;5046690;28;20191;-74
2021/07/20 04:37:05;;;;;;;9.80;3.23;;;22.90;99.90;;;;;;5047072;28;20625;-73
2021/07/20 04:39:37;;;;;;;7.00;3.17;;;23.00;99.90;;;;;;5043829;28;20187;-73
2021/07/20 04:42:04;;;;;;;11.30;3.63;;;23.00;99.90;;;;;;5042410;28;20258;-73
2021/07/20 04:44:31;;;;;;;11.47;3.50;;;23.10;99.90;;;;;;5037745;28;20188;-72
2021/07/20 04:47:01;;;;;;;10.37;3.77;;;23.10;99.90;;;;;;5046323;28;20203;-75
2021/07/20 04:49:28;;;;;;;11.97;3.67;;;23.00;99.90;;;;;;5047273;28;20648;-75
2021/07/20 04:51:55;;;;;;;11.17;3.17;;;23.10;99.90;;;;;;5059169;28;20330;-75
2021/07/20 04:54:22;;;;;;;13.60;3.83;;;23.10;99.90;;;;;;5059753;28;20180;-75
2021/07/20 04:56:48;;;;;;;15.53;3.77;;;23.20;99.90;;;;;;5043163;28;20175;-75
2021/07/20 04:59:14;;;;;;;8.97;3.00;;;23.20;99.90;;;;;;5044206;28;20339;-75
2021/07/20 05:01:42;;;;;;;12.37;3.80;;;23.20;99.90;;;;;;5041333;28;20203;-75
2021/07/20 05:04:10;;;;;;;9.50;3.70;;;23.30;99.90;;;;;;5024066;28;20183;-75
2021/07/20 05:06:39;;;;;;;11.17;3.50;;;23.30;99.90;;;;;;5042922;28;20579;-73
2021/07/20 05:09:07;;;;;;;8.53;3.57;;;23.30;99.90;;;;;;5042462;28;20203;-75
2021/07/20 05:11:37;;;;;;;10.53;3.43;;;23.30;99.90;;;;;;5055838;28;20216;-75
2021/07/20 05:14:04;;;;;;;9.40;3.10;;;23.40;99.90;;;;;;5038187;28;20725;-72
2021/07/20 05:16:33;;;;;;;9.63;3.17;;;23.40;99.90;;;;;;5038430;28;20191;-75
2021/07/20 05:19:01;;;;;;;10.13;3.30;;;23.50;99.90;;;;;;5042627;28;20179;-75
2021/07/20 05:21:30;;;;;;;8.97;3.23;;;23.50;99.90;;;;;;5025814;28;20279;-75
2021/07/20 05:23:57;;;;;;;8.80;3.40;;;23.50;99.90;;;;;;5041278;28;20187;-75
2021/07/20 05:26:25;;;;;;;10.57;3.60;;;23.50;99.90;;;;;;5044516;28;20928;-75
2021/07/20 05:28:54;;;;;;;12.47;3.20;;;23.60;99.90;;;;;;5041598;28;20200;-76
2021/07/20 05:31:21;;;;;;;9.83;3.43;;;23.60;99.90;;;;;;5021395;28;20203;-75
2021/07/20 05:33:49;;;;;;;12.55;3.33;;;23.70;99.90;;;;;;5040560;28;20540;-75
2021/07/20 05:36:16;;;;;;;10.20;3.40;;;23.70;99.90;;;;;;5044568;28;20295;-75
2021/07/20 05:38:42;;;;;;;9.18;2.97;;;23.70;99.90;;;;;;5025810;28;20580;-75
2021/07/20 05:41:10;;;;;;;9.80;3.10;;;23.80;99.90;;;;;;5045440;28;20183;-72
2021/07/20 05:43:38;;;;;;;8.93;3.53;;;23.80;99.90;;;;;;5041306;28;20858;-75
2021/07/20 05:46:05;;;;;;;7.97;2.80;;;23.90;99.90;;;;;;5030190;28;20226;-75
2021/07/20 05:48:31;;;;;;;8.07;3.20;;;23.90;99.90;;;;;;5041900;28;20278;-75
2021/07/20 05:51:02;;;;;;;14.85;3.10;;;23.90;99.90;;;;;;5023446;28;20703;-76
2021/07/20 05:53:31;;;;;;;10.90;2.83;;;24.00;99.90;;;;;;5040048;28;20179;-75
2021/07/20 05:56:03;;;;;;;33.07;4.40;;;24.00;99.90;;;;;;5041271;28;20183;-75
2021/07/20 05:58:31;;;;;;;13.18;3.15;;;24.00;99.90;;;;;;5042734;28;20285;-75
2021/07/20 06:01:03;;;;;;;14.43;3.40;;;24.10;99.90;;;;;;5039347;28;20203;-75
2021/07/20 06:03:32;;;;;;;7.25;3.10;;;24.10;99.90;;;;;;5041249;28;20192;-72
2021/07/20 06:06:00;;;;;;;11.70;3.20;;;24.10;99.90;;;;;;5042450;28;20188;-75
2021/07/20 06:08:29;;;;;;;6.47;2.58;;;24.20;99.90;;;;;;5024449;28;20180;-72
2021/07/20 06:11:03;;;;;;;12.57;3.45;;;24.30;99.90;;;;;;5041767;28;20213;-72
2021/07/20 06:13:36;;;;;;;11.10;3.00;;;24.30;99.90;;;;;;5027167;28;20179;-72
2021/07/20 06:16:08;;;;;;;10.40;3.03;;;24.40;99.90;;;;;;5040533;28;20218;-73
2021/07/20 06:18:36;;;;;;;12.10;3.00;;;24.40;99.90;;;;;;5039789;28;20188;-75
2021/07/20 06:21:08;;;;;;;8.85;2.67;;;24.50;99.90;;;;;;5039701;28;20191;-75
2021/07/20 06:23:41;;;;;;;12.57;2.63;;;24.50;99.90;;;;;;5024277;28;20993;-75
2021/07/20 06:26:08;;;;;;;11.80;3.00;;;24.50;99.90;;;;;;5042375;28;20192;-75
2021/07/20 06:28:38;;;;;;;8.75;2.60;;;24.60;99.90;;;;;;5043468;28;20193;-72
2021/07/20 06:31:07;;;;;;;7.43;2.73;;;24.60;99.90;;;;;;5040264;28;20260;-73
2021/07/20 06:33:35;;;;;;;9.32;2.75;;;24.70;99.90;;;;;;5038941;28;20592;-75
2021/07/20 06:36:03;;;;;;;11.02;3.00;;;24.80;99.90;;;;;;5023874;28;20668;-72
2021/07/20 06:38:32;;;;;;;13.55;2.80;;;24.80;99.90;;;;;;5043484;28;20276;-75
2021/07/20 06:40:59;;;;;;;8.40;2.58;;;24.90;99.90;;;;;;5038883;28;20296;-73
2021/07/20 06:43:27;;;;;;;9.65;2.55;;;24.90;99.90;;;;;;5046933;28;20249;-73
2021/07/20 06:45:54;;;;;;;6.97;2.42;;;25.00;99.90;;;;;;5048983;28;20843;-72
2021/07/20 06:48:23;;;;;;;11.18;2.63;;;25.20;99.90;;;;;;5022955;28;20183;-73
2021/07/20 06:50:54;;;;;;;9.13;2.35;;;25.30;99.90;;;;;;5045844;28;20183;-73
2021/07/20 06:53:21;;;;;;;7.47;2.08;;;25.30;99.90;;;;;;5042240;28;20172;-72
2021/07/20 06:56:00;;;;;;;8.98;2.50;;;25.40;99.90;;;;;;5027445;28;20271;-72
2021/07/20 06:58:28;;;;;;;6.22;2.40;;;25.30;99.90;;;;;;5043913;28;20627;-73
2021/07/20 07:00:59;;;;;;;8.10;2.30;;;25.40;99.90;;;;;;5044419;28;20838;-73
2021/07/20 07:03:47;;;;;;;7.72;2.40;;;25.60;99.90;;;;;;5044762;28;20190;-73
2021/07/20 07:06:21;;;;;;;6.90;2.28;;;25.70;99.90;;;;;;5043851;28;20287;-73
2021/07/20 07:08:49;;;;;;;6.28;2.50;;;25.80;99.90;;;;;;5031005;28;20179;-72
2021/07/20 07:11:16;;;;;;;10.13;1.90;;;25.80;99.90;;;;;;5029156;28;20307;-72
2021/07/20 07:13:44;;;;;;;7.47;2.60;;;25.90;99.90;;;;;;5043118;28;20701;-72
2021/07/20 07:16:12;;;;;;;7.97;2.10;;;25.90;99.90;;;;;;5046360;28;20218;-73
2021/07/20 07:18:39;;;;;;;7.65;2.15;;;26.00;99.90;;;;;;5036886;28;22305;-72
2021/07/20 07:21:07;;;;;;;7.35;2.40;;;25.90;99.90;;;;;;5047477;28;20635;-72
2021/07/20 07:23:36;;;;;;;8.45;2.15;;;26.00;99.90;;;;;;5044571;28;20215;-73
2021/07/20 07:26:04;;;;;;;15.77;2.85;;;26.20;99.90;;;;;;5040318;28;20198;-72
2021/07/20 07:28:31;;;;;;;10.35;2.13;;;26.20;99.90;;;;;;5047273;28;20704;-73
2021/07/20 07:30:59;;;;;;;10.65;2.25;;;26.30;99.90;;;;;;5041120;28;20275;-73
2021/07/20 07:33:25;;;;;;;9.75;2.40;;;26.30;99.90;;;;;;5060519;28;20184;-72
2021/07/20 07:35:54;;;;;;;5.95;2.10;;;26.20;99.90;;;;;;5062169;28;20245;-73
2021/07/20 07:38:21;;;;;;;6.93;2.13;;;26.50;99.90;;;;;;5046555;28;20242;-72
2021/07/20 07:40:55;;;;;;;4.75;2.00;;;26.50;99.90;;;;;;5028520;28;20252;-72
2021/07/20 07:43:26;;;;;;;6.18;1.90;;;26.60;99.90;;;;;;5057378;28;20200;-72
2021/07/20 07:45:57;;;;;;;8.70;1.90;;;26.60;99.90;;;;;;5028657;28;20195;-73
2021/07/20 07:48:26;;;;;;;5.68;1.90;;;26.80;99.90;;;;;;5025328;28;20375;-73
2021/07/20 07:50:57;;;;;;;4.15;1.52;;;26.90;99.90;;;;;;5038170;28;20704;-73
2021/07/20 07:53:25;;;;;;;7.47;2.00;;;26.80;99.90;;;;;;5044388;28;20189;-73
2021/07/20 07:55:54;;;;;;;5.72;2.15;;;26.80;99.90;;;;;;5043365;28;20279;-72
2021/07/20 07:58:22;;;;;;;8.63;1.70;;;27.00;99.90;;;;;;5045074;28;20218;-72
2021/07/20 08:00:51;;;;;;;6.03;2.33;;;26.90;99.90;;;;;;5044620;28;20179;-72
2021/07/20 08:03:25;;;;;;;11.30;1.77;;;27.10;99.90;;;;;;5044240;28;20191;-72
2021/07/20 08:05:55;;;;;;;5.45;1.67;;;27.10;99.90;;;;;;5043504;28;20557;-73
2021/07/20 08:08:21;;;;;;;6.75;2.05;;;27.10;99.90;;;;;;5043132;28;20880;-75
2021/07/20 08:10:53;;;;;;;5.28;1.50;;;27.20;99.90;;;;;;5028908;28;20181;-75
2021/07/20 08:13:25;;;;;;;8.32;1.77;;;27.20;99.90;;;;;;5059425;28;20188;-75
2021/07/20 08:15:54;;;;;;;6.90;1.70;;;27.30;99.90;;;;;;5045703;28;20191;-73
2021/07/20 08:18:24;;;;;;;8.80;2.25;;;27.50;99.90;;;;;;5028545;28;20283;-73
2021/07/20 08:21:02;;;;;;;7.43;1.48;;;27.60;99.90;;;;;;5033159;28;20183;-75
2021/07/20 08:23:30;;;;;;;5.00;1.55;;;27.60;99.90;;;;;;5044152;28;20674;-73
2021/07/20 08:26:05;;;;;;;6.63;1.85;;;27.60;99.90;;;;;;5042822;28;20226;-75
2021/07/20 08:28:50;;;;;;;7.70;1.80;;;27.70;99.90;;;;;;5035956;28;20195;-73
2021/07/20 08:31:19;;;;;;;5.95;1.77;;;27.80;99.90;;;;;;5027970;28;20238;-73
2021/07/20 08:33:50;;;;;;;7.75;2.15;;;27.80;99.90;;;;;;5040717;28;20188;-73
2021/07/20 08:36:21;;;;;;;9.57;2.17;;;27.90;99.90;;;;;;5026339;28;20268;-75
2021/07/20 08:38:53;;;;;;;8.15;2.17;;;28.00;99.90;;;;;;5039557;28;20176;-74
2021/07/20 08:41:49;;;;;;;15.13;2.65;;;28.10;99.90;;;;;;5042062;28;20188;-73
2021/07/20 08:44:54;;;;;;;10.75;1.90;;;28.10;99.90;;;;;;5039437;28;20272;-73
2021/07/20 08:48:10;;;;;;;9.40;2.17;;;28.10;99.90;;;;;;5046156;28;20203;-74
2021/07/20 08:50:55;;;;;;;8.57;1.80;;;28.30;99.90;;;;;;5033414;28;20202;-73
2021/07/20 08:53:58;;;;;;;5.80;1.90;;;28.40;99.90;;;;;;5038353;28;20611;-74
2021/07/20 08:56:27;;;;;;;5.28;1.80;;;28.30;99.90;;;;;;5039561;28;20215;-73
2021/07/20 08:59:13;;;;;;;6.97;2.00;;;28.50;99.90;;;;;;5040210;28;20385;-74
2021/07/20 09:02:25;;;;;;;9.40;2.00;;;28.50;99.90;;;;;;5041610;28;20184;-73
2021/07/20 09:05:31;;;;;;;8.65;2.00;;;28.60;99.90;;;;;;5059727;28;20195;-73
2021/07/20 09:08:12;;;;;;;9.38;2.15;;;28.60;99.90;;;;;;5043848;28;20209;-74
2021/07/20 09:11:05;;;;;;;10.68;2.30;;;28.50;99.90;;;;;;5043530;28;20191;-73
2021/07/20 09:13:37;;;;;;;5.60;1.88;;;28.60;99.90;;;;;;5023406;28;20214;-73
2021/07/20 09:16:33;;;;;;;7.88;2.15;;;28.60;99.90;;;;;;5044557;28;20187;-75
2021/07/20 09:19:10;;;;;;;10.70;2.35;;;28.80;99.90;;;;;;5039616;28;20196;-76
2021/07/20 09:21:46;;;;;;;7.25;2.00;;;28.80;99.90;;;;;;5034469;28;20191;-73
2021/07/20 09:24:22;;;;;;;7.93;2.03;;;28.80;99.90;;;;;;5033486;28;20187;-73
2021/07/20 09:27:05;;;;;;;5.80;2.15;;;28.90;99.90;;;;;;5038435;28;20191;-73
2021/07/20 09:29:40;;;;;;;4.68;1.88;;;29.00;99.90;;;;;;5041167;28;21144;-73
2021/07/20 09:32:54;;;;;;;7.20;2.08;;;29.00;99.90;;;;;;5038228;28;20241;-75
2021/07/20 09:35:52;;;;;;;7.72;2.10;;;29.00;99.90;;;;;;5026354;28;20202;-73
2021/07/20 09:38:50;;;;;;;5.15;2.05;;;29.10;99.90;;;;;;5041146;28;20183;-74
2021/07/20 09:41:54;;;;;;;11.32;2.67;;;29.00;99.90;;;;;;5053170;28;20187;-73
2021/07/20 09:44:50;;;;;;;9.27;2.20;;;29.20;99.90;;;;;;5036980;28;20193;-73
2021/07/20 09:47:40;;;;;;;5.18;2.20;;;29.20;99.90;;;;;;5042690;28;20203;-73
2021/07/20 09:50:16;;;;;;;7.38;2.42;;;29.50;99.90;;;;;;5037158;28;20195;-74
2021/07/20 09:53:28;;;;;;;6.78;2.03;;;29.50;99.90;;;;;;5051190;28;20219;-73
2021/07/20 09:56:35;;;;;;;5.45;2.00;;;29.60;99.90;;;;;;5021994;28;20222;-73
2021/07/20 09:59:31;;;;;;;5.32;2.13;;;29.60;99.90;;;;;;5059566;28;20188;-76
2021/07/20 10:02:01;;;;;;;5.63;1.90;;;29.60;99.90;;;;;;5028369;28;20188;-75
2021/07/20 10:05:17;;;;;;;8.07;1.85;;;29.70;99.90;;;;;;5040112;28;20190;-75
2021/07/20 10:07:58;;;;;;;7.53;2.00;;;29.70;99.90;;;;;;5014860;28;20188;-75
2021/07/20 10:10:37;;;;;;;9.30;1.70;;;29.70;99.90;;;;;;5040112;28;20352;-75
2021/07/20 10:13:39;;;;;;;6.95;2.13;;;29.80;99.90;;;;;;5038256;28;20214;-76
2021/07/20 10:17:13;;;;;;;5.05;1.83;;;29.90;99.90;;;;;;5043221;28;20189;-75
2021/07/20 10:19:45;;;;;;;4.70;1.92;;;29.90;99.90;;;;;;5022278;28;20191;-75
2021/07/20 10:22:20;;;;;;;5.25;1.75;;;29.90;99.90;;;;;;5024933;28;20198;-76
2021/07/20 10:24:58;;;;;;;7.63;1.80;;;30.00;99.90;;;;;;5036028;28;20209;-76
2021/07/20 10:27:47;;;;;;;5.50;1.90;;;30.10;99.90;;;;;;5016975;28;20963;-72
2021/07/20 10:30:18;;;;;;;6.55;1.88;;;30.50;99.90;;;;;;5038732;28;20192;-73
2021/07/20 10:33:17;;;;;;;2.95;1.88;;;31.40;99.90;;;;;;5045268;28;20207;-73
2021/07/20 10:36:12;;;;;;;10.85;1.92;;;31.70;99.90;;;;;;5040426;28;20528;-73
2021/07/20 10:39:17;;;;;;;6.05;1.90;;;31.30;99.90;;;;;;5040304;28;20187;-72
2021/07/20 10:41:58;;;;;;;4.75;2.05;;;31.00;99.90;;;;;;5039534;28;20203;-73
2021/07/20 10:45:04;;;;;;;7.15;1.90;;;30.80;99.90;;;;;;5041720;28;20515;-72
2021/07/20 10:47:47;;;;;;;5.72;2.15;;;30.70;99.90;;;;;;5040298;28;20253;-74
2021/07/20 10:50:43;;;;;;;7.97;2.08;;;30.60;99.90;;;;;;5041641;28;20198;-75
2021/07/20 10:53:51;;;;;;;7.30;1.90;;;30.80;99.90;;;;;;5034341;28;20546;-75
2021/07/20 10:56:33;;;;;;;7.90;2.05;;;30.80;99.90;;;;;;5036180;28;20276;-75
2021/07/20 10:59:18;;;;;;;9.52;2.30;;;30.70;99.90;;;;;;5034714;28;20183;-75
2021/07/20 11:02:10;;;;;;;7.25;2.42;;;30.60;99.90;;;;;;5043478;28;20244;-75
2021/07/20 11:04:57;;;;;;;5.03;2.03;;;30.60;99.90;;;;;;5036542;28;20279;-75
2021/07/20 11:07:36;;;;;;;6.20;2.22;;;30.40;99.90;;;;;;5041266;28;20278;-75
2021/07/20 11:10:09;;;;;;;11.38;2.55;;;30.60;99.90;;;;;;5040601;28;20211;-75
2021/07/20 11:12:41;;;;;;;8.15;2.30;;;30.50;99.90;;;;;;5057446;28;20208;-74
2021/07/20 11:15:09;;;;;;;6.28;2.20;;;30.60;99.90;;;;;;5021664;28;20211;-74
2021/07/20 11:17:40;;;;;;;10.02;2.10;;;30.60;99.90;;;;;;5020516;28;20796;-75
2021/07/20 11:20:12;;;;;;;6.97;2.25;;;30.60;99.90;;;;;;5036544;28;20192;-75
2021/07/20 11:22:41;;;;;;;4.88;2.10;;;30.50;99.90;;;;;;5040667;28;20196;-75
2021/07/20 11:25:10;;;;;;;7.70;1.90;;;30.60;99.90;;;;;;5025791;28;20261;-75
2021/07/20 11:27:42;;;;;;;5.55;1.83;;;30.50;99.90;;;;;;5032682;28;20198;-74
2021/07/20 11:30:19;;;;;;;7.05;1.67;;;30.60;99.90;;;;;;5042319;28;20228;-75
2021/07/20 11:33:14;;;;;;;5.82;2.15;;;30.50;99.90;;;;;;5056352;28;20207;-75
2021/07/20 11:35:47;;;;;;;6.75;2.15;;;30.30;99.90;;;;;;5040099;28;20184;-75
2021/07/20 11:38:17;;;;;;;9.27;2.20;;;30.30;99.90;;;;;;5041239;28;20184;-74
2021/07/20 11:40:58;;;;;;;7.00;1.90;;;30.40;99.90;;;;;;5041291;28;20226;-74
2021/07/20 11:44:00;;;;;;;9.77;2.60;;;30.50;99.90;;;;;;5037304;28;20313;-74
2021/07/20 11:46:43;;;;;;;8.10;1.80;;;30.40;99.90;;;;;;5057332;28;20304;-75
2021/07/20 11:50:00;;;;;;;8.13;2.20;;;30.40;99.90;;;;;;5045881;28;20281;-74
2021/07/20 11:52:54;;;;;;;13.10;2.53;;;30.40;99.90;;;;;;5029523;28;20293;-74
2021/07/20 11:55:36;;;;;;;7.45;2.30;;;30.50;99.90;;;;;;5037057;28;20226;-75
2021/07/20 11:58:02;;;;;;;7.78;2.15;;;30.30;99.90;;;;;;5045272;28;20636;-74
2021/07/20 12:00:59;;;;;;;8.68;2.30;;;30.30;99.90;;;;;;5052178;28;20184;-74
2021/07/20 12:04:21;;;;;;;7.72;2.15;;;30.40;99.90;;;;;;5039536;28;20993;-74
2021/07/20 12:07:01;;;;;;;8.40;2.60;;;30.30;99.90;;;;;;5043430;28;20306;-74
2021/07/20 12:09:50;;;;;;;8.32;2.47;;;30.30;99.90;;;;;;5057143;28;20191;-74
2021/07/20 12:12:20;;;;;;;7.18;2.42;;;30.40;99.90;;;;;;5039831;28;20700;-73
2021/07/20 12:14:47;;;;;;;10.45;2.20;;;30.30;99.90;;;;;;5041261;28;20283;-74
2021/07/20 12:17:15;;;;;;;11.98;2.60;;;30.30;99.90;;;;;;5041860;28;20183;-74
2021/07/20 12:19:45;;;;;;;8.32;2.53;;;30.20;99.90;;;;;;5040324;28;20275;-75
2021/07/20 12:22:12;;;;;;;7.97;2.20;;;30.40;99.90;;;;;;5038124;28;20188;-74
2021/07/20 12:24:39;;;;;;;8.93;2.80;;;30.50;99.90;;;;;;5023797;28;20187;-74
2021/07/20 12:27:08;;;;;;;10.02;2.58;;;30.30;99.90;;;;;;5058103;28;20186;-74
2021/07/20 12:29:42;;;;;;;8.18;2.55;;;30.50;99.90;;;;;;5048347;28;20456;-74
2021/07/20 12:32:16;;;;;;;8.13;2.35;;;30.40;99.90;;;;;;5037569;28;20663;-75
2021/07/20 12:34:48;;;;;;;8.13;2.40;;;30.40;99.90;;;;;;5041159;28;20279;-74
2021/07/20 12:37:15;;;;;;;6.45;2.20;;;30.50;99.90;;;;;;5041812;28;20237;-74
2021/07/20 12:39:42;;;;;;;10.23;1.92;;;30.40;99.90;;;;;;5036732;28;20190;-74
2021/07/20 12:42:10;;;;;;;8.80;2.60;;;30.40;99.90;;;;;;5026998;28;20983;-73
2021/07/20 12:44:37;;;;;;;5.68;2.22;;;30.50;99.90;;;;;;5046563;28;20688;-74
2021/07/20 12:47:14;;;;;;;12.95;2.20;;;30.40;99.90;;;;;;5043457;28;20285;-75
2021/07/20 12:49:44;;;;;;;5.95;2.20;;;30.30;99.90;;;;;;5040836;28;20175;-75
2021/07/20 12:52:14;;;;;;;10.15;2.45;;;30.40;99.90;;;;;;5043440;28;20200;-74
2021/07/20 12:54:43;;;;;;;8.75;2.13;;;30.40;99.90;;;;;;5028318;28;20298;-75
2021/07/20 12:57:12;;;;;;;4.20;1.80;;;30.40;99.90;;;;;;5042965;28;20187;-74
2021/07/20 12:59:40;;;;;;;6.85;2.13;;;30.40;99.90;;;;;;5037856;28;20191;-74
2021/07/20 13:02:15;;;;;;;8.77;2.03;;;30.40;99.90;;;;;;5023686;28;20345;-74
2021/07/20 13:04:51;;;;;;;6.05;1.92;;;30.40;99.90;;;;;;5031307;28;20194;-75
2021/07/20 13:07:18;;;;;;;6.70;2.28;;;30.40;99.90;;;;;;5014555;28;20809;-75
2021/07/20 13:09:46;;;;;;;7.72;2.35;;;30.40;99.90;;;;;;5024413;28;20282;-76
2021/07/20 13:12:17;;;;;;;6.22;2.08;;;30.40;99.90;;;;;;5041378;28;21168;-74
2021/07/20 13:14:43;;;;;;;3.78;1.60;;;30.30;99.90;;;;;;5026418;28;20634;-74
2021/07/20 13:17:18;;;;;;;7.88;2.35;;;30.30;99.90;;;;;;5025247;28;20175;-73
2021/07/20 13:19:46;;;;;;;7.18;2.10;;;30.10;99.90;;;;;;5043637;28;20698;-74
2021/07/20 13:22:24;;;;;;;7.32;2.10;;;30.10;99.90;;;;;;5036017;28;20214;-74